createdAt,value
2019-04-22T00:01:34.327Z,33.50
2019-04-22T00:04:11.088Z,31.20
2019-04-22T00:07:04.287Z,31.70
2019-04-22T00:09:47.481Z,30.60
2019-04-22T00:14:47.757Z,29.30
2019-04-22T00:17:35.302Z,27.70
2019-04-22T00:20:02.974Z,25.40
2019-04-22T00:22:32.139Z,23.00
2019-04-22T00:25:10.589Z,23.10
2019-04-22T00:27:40.744Z,22.20
2019-04-22T00:30:16.570Z,21.90
2019-04-22T00:33:03.189Z,21.60
2019-04-22T00:35:36.684Z,21.40
2019-04-22T00:38:17.435Z,21.20
2019-04-22T00:40:44.716Z,21.00
2019-04-22T00:43:25.960Z,20.70
2019-04-22T00:45:55.770Z,20.30
2019-04-22T00:48:38.436Z,20.30
2019-04-22T00:51:15.666Z,20.00
2019-04-22T00:53:39.212Z,20.10
2019-04-22T00:58:46.678Z,19.60
2019-04-22T01:04:05.607Z,19.00
2019-04-22T01:06:44.293Z,18.80
2019-04-22T01:09:11.247Z,18.80
2019-04-22T01:11:37.314Z,18.80
2019-04-22T01:14:20.322Z,18.40
2019-04-22T01:16:48.572Z,18.30
2019-04-22T01:19:26.034Z,18.00
2019-04-22T01:21:58.269Z,17.30
2019-04-22T01:24:26.261Z,17.20
2019-04-22T01:26:58.167Z,17.40
2019-04-22T01:29:30.391Z,17.50
2019-04-22T01:31:51.378Z,17.20
2019-04-22T01:34:40.554Z,17.20
2019-04-22T01:37:20.270Z,17.00
2019-04-22T01:40:08.250Z,16.90
2019-04-22T01:42:32.670Z,17.10
2019-04-22T01:45:10.663Z,16.60
2019-04-22T01:47:43.741Z,16.80
2019-04-22T01:50:16.213Z,17.00
2019-04-22T01:52:54.570Z,16.70
2019-04-22T01:55:32.508Z,16.60
2019-04-22T01:57:53.653Z,16.60
2019-04-22T02:00:35.936Z,16.50
2019-04-22T02:03:12.696Z,16.10
2019-04-22T02:05:43.852Z,16.30
2019-04-22T02:08:25.112Z,16.30
2019-04-22T02:10:54.849Z,15.80
2019-04-22T02:13:29.156Z,15.70
2019-04-22T02:16:12.559Z,15.80
2019-04-22T02:18:40.950Z,15.40
2019-04-22T02:21:10.631Z,15.40
2019-04-22T02:26:35.847Z,15.30
2019-04-22T02:28:47.647Z,15.10
2019-04-22T02:31:35.872Z,14.80
2019-04-22T02:36:34.025Z,14.60
2019-04-22T02:41:40.950Z,14.60
2019-04-22T02:49:31.561Z,14.50
2019-04-22T02:52:01.945Z,14.30
2019-04-22T02:57:25.808Z,14.10
2019-04-22T02:59:46.873Z,14.10
2019-04-22T03:02:35.677Z,13.90
2019-04-22T03:04:57.854Z,13.80
2019-04-22T03:10:10.002Z,13.80
2019-04-22T03:12:35.242Z,13.80
2019-04-22T03:15:07.371Z,13.60
2019-04-22T03:17:54.224Z,13.60
2019-04-22T03:20:17.841Z,13.40
2019-04-22T03:22:59.990Z,13.30
2019-04-22T03:25:51.801Z,13.50
2019-04-22T03:27:52.515Z,13.40
2019-04-22T03:38:22.987Z,13.20
2019-04-22T03:41:05.819Z,13.10
2019-04-22T03:43:35.972Z,13.20
2019-04-22T03:46:02.014Z,13.00
2019-04-22T03:48:47.395Z,13.10
2019-04-22T03:51:20.160Z,13.00
2019-04-22T03:53:55.458Z,12.90
2019-04-22T03:57:04.942Z,12.80
2019-04-22T03:58:58.723Z,12.90
2019-04-22T04:01:36.910Z,12.80
2019-04-22T04:04:09.376Z,12.80
2019-04-22T04:06:57.042Z,12.90
2019-04-22T04:09:18.439Z,12.80
2019-04-22T04:16:56.112Z,12.90
2019-04-22T04:19:34.437Z,12.80
2019-04-22T04:40:11.714Z,12.50
2019-04-22T04:45:24.122Z,12.50
2019-04-22T04:47:53.466Z,12.50
2019-04-22T04:50:12.155Z,12.50
2019-04-22T04:58:36.825Z,12.60
2019-04-22T05:03:57.585Z,12.50
2019-04-22T05:05:57.045Z,12.50
2019-04-22T05:08:48.261Z,12.50
2019-04-22T05:13:49.030Z,12.40
2019-04-22T05:18:44.693Z,12.40
2019-04-22T05:26:30.992Z,12.40
2019-04-22T05:29:02.672Z,12.40
2019-04-22T05:34:08.222Z,12.50
2019-04-22T05:36:44.493Z,12.50
2019-04-22T05:39:11.122Z,12.50
2019-04-22T05:41:48.620Z,12.40
2019-04-22T05:46:54.361Z,12.30
2019-04-22T05:49:29.939Z,12.40
2019-04-22T05:52:05.181Z,12.40
2019-04-22T05:54:38.755Z,12.40
2019-04-22T05:57:14.454Z,12.40
2019-04-22T05:59:48.758Z,12.30
2019-04-22T06:02:30.487Z,12.20
2019-04-22T06:05:01.813Z,12.20
2019-04-22T06:07:26.338Z,12.20
2019-04-22T06:10:08.223Z,12.20
2019-04-22T06:12:37.533Z,12.20
2019-04-22T06:15:16.338Z,12.20
2019-04-22T06:17:57.610Z,12.10
2019-04-22T06:20:28.610Z,12.00
2019-04-22T06:25:55.024Z,12.00
2019-04-22T06:28:20.420Z,12.00
2019-04-22T06:30:43.096Z,12.10
2019-04-22T06:33:20.622Z,12.10
2019-04-22T06:35:52.121Z,12.00
2019-04-22T06:41:05.283Z,11.80
2019-04-22T06:43:34.930Z,11.90
2019-04-22T06:46:09.831Z,11.90
2019-04-22T06:49:01.397Z,12.00
2019-04-22T06:51:15.253Z,12.00
2019-04-22T06:53:48.130Z,11.90
2019-04-22T06:56:21.979Z,11.90
2019-04-22T06:58:57.783Z,11.80
2019-04-22T07:01:39.761Z,11.70
2019-04-22T07:04:03.316Z,11.70
2019-04-22T07:07:03.292Z,11.70
2019-04-22T07:11:49.671Z,11.60
2019-04-22T07:14:23.869Z,11.50
2019-04-22T07:16:56.125Z,11.50
2019-04-22T07:19:33.494Z,11.40
2019-04-22T07:22:11.038Z,11.40
2019-04-22T07:27:17.031Z,11.40
2019-04-22T07:29:57.809Z,11.30
2019-04-22T07:33:01.029Z,11.30
2019-04-22T07:35:04.130Z,11.20
2019-04-22T07:40:02.285Z,11.10
2019-04-22T07:42:45.495Z,11.10
2019-04-22T07:45:22.643Z,11.10
2019-04-22T07:47:52.131Z,11.10
2019-04-22T07:50:35.923Z,11.10
2019-04-22T07:52:59.147Z,11.10
2019-04-22T07:55:32.804Z,11.00
2019-04-22T07:58:11.789Z,10.90
2019-04-22T08:00:55.331Z,11.00
2019-04-22T08:03:38.168Z,11.10
2019-04-22T08:06:05.382Z,11.00
2019-04-22T08:08:35.622Z,11.00
2019-04-22T08:11:21.870Z,11.00
2019-04-22T08:13:40.663Z,11.00
2019-04-22T08:16:17.193Z,11.00
2019-04-22T08:18:54.076Z,11.00
2019-04-22T08:21:21.984Z,11.00
2019-04-22T08:24:01.499Z,11.10
2019-04-22T08:26:32.214Z,11.00
2019-04-22T08:29:21.639Z,11.00
2019-04-22T08:31:49.182Z,11.00
2019-04-22T08:34:20.846Z,10.90
2019-04-22T08:37:22.756Z,10.90
2019-04-22T08:39:25.245Z,10.90
2019-04-22T08:42:02.840Z,10.90
2019-04-22T08:44:52.033Z,10.90
2019-04-22T08:49:50.690Z,10.80
2019-04-22T08:52:22.296Z,10.80
2019-04-22T08:54:57.389Z,10.80
2019-04-22T08:57:34.704Z,10.90
2019-04-22T09:00:03.975Z,10.90
2019-04-22T09:02:41.490Z,10.90
2019-04-22T09:05:11.899Z,10.90
2019-04-22T09:07:50.316Z,10.90
2019-04-22T09:10:20.406Z,10.90
2019-04-22T09:15:30.497Z,10.80
2019-04-22T09:18:02.344Z,10.70
2019-04-22T09:23:17.675Z,10.60
2019-04-22T09:25:40.539Z,10.60
2019-04-22T09:28:17.401Z,10.60
2019-04-22T09:30:56.961Z,10.50
2019-04-22T09:33:27.276Z,10.50
2019-04-22T09:36:12.839Z,10.40
2019-04-22T09:38:37.512Z,10.40
2019-04-22T09:41:15.219Z,10.40
2019-04-22T09:46:23.114Z,10.30
2019-04-22T09:49:03.466Z,10.30
2019-04-22T09:51:31.115Z,10.20
2019-04-22T09:54:10.714Z,10.20
2019-04-22T09:56:38.712Z,10.10
2019-04-22T09:59:07.603Z,10.10
2019-04-22T10:01:49.276Z,10.00
2019-04-22T10:04:18.599Z,10.00
2019-04-22T10:07:08.126Z,10.00
2019-04-22T10:12:16.609Z,10.00
2019-04-22T10:14:45.374Z,9.90
2019-04-22T10:17:14.085Z,9.90
2019-04-22T10:20:07.134Z,10.00
2019-04-22T10:27:38.372Z,9.90
2019-04-22T10:32:46.098Z,9.80
2019-04-22T10:35:14.619Z,9.80
2019-04-22T10:37:43.089Z,9.80
2019-04-22T10:40:30.325Z,9.70
2019-04-22T10:43:03.523Z,9.60
2019-04-22T10:45:37.709Z,9.50
2019-04-22T10:48:12.374Z,9.60
2019-04-22T10:50:48.644Z,9.60
2019-04-22T10:53:22.072Z,9.60
2019-04-22T10:55:56.281Z,9.50
2019-04-22T10:58:29.065Z,9.50
2019-04-22T11:01:03.242Z,9.50
2019-04-22T11:03:37.202Z,9.50
2019-04-22T11:06:11.500Z,9.50
2019-04-22T11:08:52.233Z,9.40
2019-04-22T11:11:31.419Z,9.40
2019-04-22T11:13:53.661Z,9.40
2019-04-22T11:16:27.874Z,9.40
2019-04-22T11:19:01.397Z,9.30
2019-04-22T11:21:34.123Z,9.30
2019-04-22T11:24:06.869Z,9.20
2019-04-22T11:26:40.950Z,9.30
2019-04-22T11:29:14.007Z,9.20
2019-04-22T11:31:46.605Z,9.20
2019-04-22T11:34:19.393Z,9.20
2019-04-22T11:36:52.704Z,9.20
2019-04-22T11:39:26.292Z,9.20
2019-04-22T11:42:00.294Z,9.20
2019-04-22T11:44:32.994Z,9.20
2019-04-22T11:47:07.494Z,9.00
2019-04-22T11:49:41.640Z,9.00
2019-04-22T11:52:16.433Z,9.00
2019-04-22T11:54:48.686Z,9.00
2019-04-22T11:57:21.484Z,9.00
2019-04-22T11:59:54.708Z,9.00
2019-04-22T12:02:29.210Z,9.00
2019-04-22T12:05:02.111Z,8.90
2019-04-22T12:07:36.602Z,8.80
2019-04-22T12:10:17.724Z,8.80
2019-04-22T12:12:46.158Z,8.80
2019-04-22T12:15:18.989Z,8.80
2019-04-22T12:17:52.984Z,8.80
2019-04-22T12:20:27.445Z,8.80
2019-04-22T12:23:01.027Z,8.80
2019-04-22T12:25:43.364Z,8.70
2019-04-22T12:28:08.814Z,8.70
2019-04-22T12:30:41.738Z,8.60
2019-04-22T12:33:14.907Z,8.60
2019-04-22T12:35:48.449Z,8.70
2019-04-22T12:38:22.142Z,8.70
2019-04-22T12:41:00.262Z,8.70
2019-04-22T12:43:29.715Z,8.70
2019-04-22T12:46:02.452Z,8.70
2019-04-22T12:48:35.144Z,8.60
2019-04-22T12:51:09.063Z,8.60
2019-04-22T12:53:42.196Z,8.60
2019-04-22T12:56:15.442Z,8.60
2019-04-22T12:58:49.801Z,8.60
2019-04-22T13:01:22.348Z,8.60
2019-04-22T13:04:00.280Z,8.60
2019-04-22T13:06:29.963Z,8.60
2019-04-22T13:09:02.425Z,8.60
2019-04-22T13:11:36.960Z,8.50
2019-04-22T13:14:10.673Z,8.40
2019-04-22T13:16:43.151Z,8.40
2019-04-22T13:19:18.897Z,8.40
2019-04-22T13:21:50.886Z,8.40
2019-04-22T13:24:25.782Z,8.40
2019-04-22T13:26:59.076Z,8.30
2019-04-22T13:29:33.007Z,8.30
2019-04-22T13:32:06.853Z,8.30
2019-04-22T13:34:45.676Z,8.30
2019-04-22T13:37:14.845Z,8.30
2019-04-22T13:39:47.369Z,8.30
2019-04-22T13:42:21.785Z,8.30
2019-04-22T13:44:53.701Z,8.30
2019-04-22T13:47:42.078Z,8.40
2019-04-22T13:53:23.882Z,8.30
2019-04-22T13:55:41.702Z,8.50
2019-04-22T13:57:58.350Z,8.50
2019-04-22T14:00:20.762Z,8.50
2019-04-22T14:03:10.671Z,8.60
2019-04-22T14:05:44.909Z,8.60
2019-04-22T14:08:18.435Z,8.60
2019-04-22T14:10:52.327Z,8.60
2019-04-22T14:13:25.863Z,8.60
2019-04-22T14:15:59.439Z,8.70
2019-04-22T14:18:32.847Z,8.80
2019-04-22T14:21:06.845Z,8.90
2019-04-22T14:23:40.531Z,9.00
2019-04-22T14:26:13.341Z,9.00
2019-04-22T14:28:46.153Z,9.10
2019-04-22T14:31:20.025Z,9.10
2019-04-22T14:33:58.452Z,9.20
2019-04-22T14:36:29.733Z,9.30
2019-04-22T14:39:02.210Z,9.50
2019-04-22T14:41:49.749Z,9.60
2019-04-22T14:47:09.081Z,10.00
2019-04-22T14:49:42.116Z,10.10
2019-04-22T14:52:15.201Z,10.20
2019-04-22T14:54:37.684Z,10.20
2019-04-22T14:57:01.043Z,10.30
2019-04-22T14:59:33.525Z,10.50
2019-04-22T15:02:07.587Z,10.70
2019-04-22T15:04:42.870Z,10.90
2019-04-22T15:07:15.011Z,11.00
2019-04-22T15:09:48.101Z,11.10
2019-04-22T15:12:31.020Z,11.30
2019-04-22T15:14:55.487Z,11.30
2019-04-22T15:17:36.813Z,11.30
2019-04-22T15:20:27.760Z,11.50
2019-04-22T15:23:00.288Z,11.60
2019-04-22T15:25:32.653Z,11.70
2019-04-22T15:28:05.780Z,11.90
2019-04-22T15:30:39.398Z,12.00
2019-04-22T15:33:12.055Z,12.10
2019-04-22T15:35:45.175Z,12.40
2019-04-22T15:38:20.533Z,12.60
2019-04-22T15:40:52.494Z,12.80
2019-04-22T15:43:27.973Z,12.80
2019-04-22T15:46:01.510Z,13.00
2019-04-22T15:48:34.060Z,13.20
2019-04-22T15:51:06.850Z,13.30
2019-04-22T15:53:39.861Z,13.40
2019-04-22T15:56:12.768Z,13.60
2019-04-22T15:58:46.086Z,13.90
2019-04-22T16:01:25.886Z,14.20
2019-04-22T16:03:52.833Z,14.20
2019-04-22T16:06:26.172Z,14.40
2019-04-22T16:08:59.956Z,14.60
2019-04-22T16:11:33.957Z,14.70
2019-04-22T16:14:06.652Z,14.90
2019-04-22T16:16:39.062Z,15.00
2019-04-22T16:19:12.190Z,15.10
2019-04-22T16:21:53.431Z,15.40
2019-04-22T16:24:20.233Z,15.70
2019-04-22T16:26:54.283Z,16.00
2019-04-22T16:29:27.495Z,16.10
2019-04-22T16:32:01.272Z,16.30
2019-04-22T16:34:34.280Z,16.60
2019-04-22T16:37:07.040Z,16.60
2019-04-22T16:39:42.060Z,16.80
2019-04-22T16:42:27.689Z,17.00
2019-04-22T16:44:49.430Z,17.10
2019-04-22T16:47:23.658Z,17.20
2019-04-22T16:49:57.425Z,17.60
2019-04-22T16:52:30.444Z,17.70
2019-04-22T16:55:03.461Z,17.80
2019-04-22T16:57:37.710Z,18.00
2019-04-22T17:00:12.985Z,18.00
2019-04-22T17:03:03.017Z,18.20
2019-04-22T17:05:47.431Z,18.30
2019-04-22T17:08:20.819Z,18.60
2019-04-22T17:10:55.653Z,18.90
2019-04-22T17:13:31.992Z,19.10
2019-04-22T17:16:02.424Z,19.10
2019-04-22T17:18:35.209Z,19.30
2019-04-22T17:21:11.034Z,19.40
2019-04-22T17:23:43.485Z,19.50
2019-04-22T17:26:16.725Z,19.50
2019-04-22T17:28:49.521Z,19.50
2019-04-22T17:31:22.807Z,19.40
2019-04-22T17:33:56.989Z,19.70
2019-04-22T17:36:30.075Z,19.90
2019-04-22T17:39:20.714Z,20.60
2019-04-22T17:41:55.269Z,20.60
2019-04-22T17:47:12.566Z,21.10
2019-04-22T17:49:55.250Z,21.40
2019-04-22T17:52:25.191Z,21.50
2019-04-22T17:55:02.698Z,21.70
2019-04-22T17:57:33.022Z,21.80
2019-04-22T18:00:06.897Z,22.00
2019-04-22T18:02:39.745Z,21.60
2019-04-22T18:05:02.037Z,22.00
2019-04-22T18:07:49.081Z,21.90
2019-04-22T18:13:08.825Z,22.70
2019-04-22T18:15:37.523Z,22.90
2019-04-22T18:18:12.345Z,22.80
2019-04-22T18:20:38.167Z,22.80
2019-04-22T18:23:06.739Z,23.10
2019-04-22T18:25:53.505Z,23.00
2019-04-22T18:28:30.321Z,23.40
2019-04-22T18:30:58.739Z,23.20
2019-04-22T18:33:32.971Z,23.60
2019-04-22T18:36:04.083Z,23.70
2019-04-22T18:38:52.528Z,23.60
2019-04-22T18:41:12.579Z,23.80
2019-04-22T18:43:53.138Z,23.60
2019-04-22T18:46:21.045Z,24.10
2019-04-22T18:49:00.652Z,24.30
2019-04-22T18:51:44.648Z,24.20
2019-04-22T18:54:13.501Z,24.60
2019-04-22T18:57:04.496Z,24.60
2019-04-22T18:59:22.535Z,24.40
2019-04-22T19:01:52.362Z,25.20
2019-04-22T19:04:31.622Z,25.80
2019-04-22T19:07:24.352Z,26.00
2019-04-22T19:10:04.875Z,25.90
2019-04-22T19:12:38.320Z,26.80
2019-04-22T19:15:04.144Z,27.40
2019-04-22T19:20:16.506Z,28.30
2019-04-22T19:22:43.782Z,29.70
2019-04-22T19:25:11.666Z,30.90
2019-04-22T19:27:46.703Z,31.50
2019-04-22T19:30:33.451Z,32.70
2019-04-22T19:33:06.185Z,34.80
2019-04-22T19:35:26.694Z,34.20
2019-04-22T19:38:00.199Z,34.50
2019-04-22T19:40:58.225Z,33.90
2019-04-22T19:43:27.406Z,33.60
2019-04-22T19:45:55.070Z,34.80
2019-04-22T19:53:37.087Z,36.20
2019-04-22T19:56:06.144Z,35.70
2019-04-22T19:58:37.360Z,34.20
2019-04-22T20:01:38.620Z,36.80
2019-04-22T20:04:17.935Z,39.00
2019-04-22T20:06:52.806Z,37.50
2019-04-22T20:09:25.007Z,35.90
2019-04-22T20:11:57.445Z,35.90
2019-04-22T20:14:26.998Z,35.60
2019-04-22T20:17:00.628Z,36.60
2019-04-22T20:19:48.014Z,38.20
2019-04-22T20:22:14.332Z,37.10
2019-04-22T20:24:33.993Z,37.50
2019-04-22T20:27:25.244Z,38.10
2019-04-22T20:29:58.022Z,38.50
2019-04-22T20:32:36.343Z,38.00
2019-04-22T20:35:09.288Z,37.70
2019-04-22T20:37:47.227Z,38.40
2019-04-22T20:40:20.177Z,39.70
2019-04-22T20:42:55.585Z,39.90
2019-04-22T20:45:29.211Z,39.50
2019-04-22T20:47:50.975Z,39.40
2019-04-22T20:50:37.870Z,38.80
2019-04-22T20:53:14.134Z,39.30
2019-04-22T20:55:36.487Z,40.70
2019-04-22T20:58:11.714Z,42.00
2019-04-22T21:00:40.264Z,42.80
2019-04-22T21:03:13.394Z,42.40
2019-04-22T21:05:48.164Z,42.00
2019-04-22T21:08:33.864Z,42.20
2019-04-22T21:10:52.027Z,41.50
2019-04-22T21:13:31.771Z,42.00
2019-04-22T21:16:20.456Z,42.20
2019-04-22T21:18:36.102Z,42.30
2019-04-22T21:21:20.403Z,40.50
2019-04-22T21:23:47.728Z,40.60
2019-04-22T21:26:24.028Z,41.10
2019-04-22T21:28:58.440Z,40.30
2019-04-22T21:31:52.638Z,43.00
2019-04-22T21:34:06.898Z,42.70
2019-04-22T21:36:51.057Z,43.30
2019-04-22T21:39:12.590Z,42.80
2019-04-22T21:41:52.840Z,43.70
2019-04-22T21:44:26.082Z,44.30
2019-04-22T21:47:03.420Z,43.10
2019-04-22T21:49:37.225Z,41.60
2019-04-22T21:52:07.955Z,41.10
2019-04-22T21:54:50.154Z,42.10
2019-04-22T21:57:27.865Z,40.60
2019-04-22T22:00:07.799Z,40.10
2019-04-22T22:02:41.135Z,38.50
2019-04-22T22:05:00.152Z,41.10
2019-04-22T22:07:26.857Z,41.10
2019-04-22T22:10:19.729Z,42.40
2019-04-22T22:12:48.757Z,42.70
2019-04-22T22:15:26.122Z,44.80
2019-04-22T22:17:57.046Z,44.50
2019-04-22T22:20:30.964Z,43.70
2019-04-22T22:23:15.686Z,44.80
2019-04-22T22:25:35.048Z,44.70
2019-04-22T22:28:21.979Z,41.60
2019-04-22T22:30:58.268Z,38.90
2019-04-22T22:33:26.331Z,38.20
2019-04-22T22:35:58.361Z,39.90
2019-04-22T22:38:27.143Z,38.70
2019-04-22T22:40:45.819Z,36.60
2019-04-22T22:43:26.633Z,38.40
2019-04-22T22:46:06.300Z,41.80
2019-04-22T22:48:51.554Z,41.80
2019-04-22T22:51:32.564Z,43.00
2019-04-22T22:54:00.788Z,43.00
2019-04-22T22:56:38.540Z,42.30
2019-04-22T22:59:03.413Z,43.20
2019-04-22T23:01:39.572Z,43.00
2019-04-22T23:04:17.720Z,41.70
2019-04-22T23:06:49.985Z,38.60
2019-04-22T23:09:22.554Z,38.50
2019-04-22T23:12:06.169Z,37.90
2019-04-22T23:14:28.048Z,39.70
2019-04-22T23:16:50.525Z,41.00
2019-04-22T23:19:15.478Z,41.40
2019-04-22T23:21:52.603Z,39.90
2019-04-22T23:25:01.704Z,39.50
2019-04-22T23:27:41.853Z,40.30
2019-04-22T23:30:26.750Z,40.20
2019-04-22T23:33:13.205Z,40.40
2019-04-22T23:35:42.417Z,36.90
2019-04-22T23:38:18.475Z,35.80
2019-04-22T23:40:52.695Z,38.20
2019-04-22T23:46:04.330Z,38.90
2019-04-22T23:48:28.980Z,38.80
2019-04-22T23:51:08.670Z,38.90
2019-04-22T23:56:15.359Z,37.10
2019-04-22T23:59:01.181Z,37.30
